Robinsonville, MS (38664)

5:56 AM CDT on September 02, 2014 (GMT -0500)
Tunica | Change Station
CLOSE
Current Station
Airport
Location: Tunica,
Elevation: 194 ft
Nearby Weather Stations

Elev 194 ft 34.68 °N, 90.35 °W | Updated 21 minutes ago

Clear
Clear
72 °F
Feels Like 72 °F
N
0
Wind Variable Wind from North

Today
High -- | Low -- °F
--% Chance of Precip.
Yesterday
High -- | Low -- °F
Precip. -- in
6:34 AM 7:26 PM
Waxing Crescent, 50% visible
Pressure 30.03 in
Visibility 7.0 miles
Clouds Clear
Dew Point 72 °F
Humidity 100%
Rainfall 0.00 in
Snow Depth Not available.
UV 0 out of 12
Pollen 10.90 out of 12
Air Quality Not available.
Flu Activity Not available.
METAR KUTA 021035Z AUTO 00000KT 7SM CLR 22/22 A3003 RMK AO2 TSNO

More Conditions Fewer Conditions

Pressure 30.03 in
Visibility 7.0 miles
Clouds Clear
Dew Point 72 °F
Humidity 100%
Rainfall 0.00 in
Snow Depth Not available.
UV 0 out of 12
Pollen 10.90 out of 12
Air Quality Not available.
Flu Activity Not available.
METAR KUTA 021035Z AUTO 00000KT 7SM CLR 22/22 A3003 RMK AO2 TSNO

More Conditions Fewer Conditions

10-Day Weather Forecast

Almanac

Astronomy

Sep. 02, 2014 Rise Set
Actual Time 6:34 AM CDT 7:26 PM CDT
Civil Twilight 6:09 AM CDT 7:52 PM CDT
Nautical Twilight 5:38 AM CDT 8:22 PM CDT
Astronomical Twilight 5:07 AM CDT 8:53 PM CDT
Moon 2:02 PM CDT No Moon Set
Length of Visible Light 13h 42m
Length of Day
12h 51m
Tomorrow will be 2m 5s shorter.
Waxing Crescent, 50% of the Moon is Illuminated
Today
Waxing Crescent
Sep 2
First Quarter
Sep 8
Full
Sep 15
Last Quarter
Sep 24
New

Today's Extremes

State Highs State Lows

Community

WunderPhotos

Upload Photos

1,749,611 photos uploaded!

WunderBlogs® & News

Nearby

Snow Depth

Station Depth Elevation
No new snow has been reported.

Earthquake Activity

City Distance Mag. Time & Date
Tiptonville, Tennessee 117 miles 2.9 11:19 PM CDT
2014-08-31
Minimum magnitude displayed is 2.5.

Coastal Water Temperatures

Place Temperature
No Stations Reporting

Nearby Weather Stations